Decoded Metar for HECA (CAIRO in EGYPT) (IATA:CAI) | Meteo·Mobile Aviation Weather
aviador You're here:

HECA Decoded Metar

CAIRO in EGYPT
Report Time2018-10-23 11:00:00
UTC Time2018-10-23 12:16:22
Flight Rules Old
Wind200° at 09 kt
W.Decomp.*RWY 23: 7.5 kt HW 5 kt LCW
W.Rank200° ranks 22
Current wind is below 200° avg. (9.6)
Visibility6000 m
Phenomena:N/A
Clouds:Broken 025 Hf
Expected CloudBase > 8,000 ft AGL from Temp-Dew spread
Ceiling2,500 ft
Temp32°C (ISA +17)
Dew Point12°C (29% RH)
Heat Index30.7°C
AAT29.3°C
QNH1011 hPa
Density Alt2,497 ft
Elevation243 ft
Report Wrong Elevation
Raw Report
METAR HECA 231100Z 20009KT 6000 BKN025 32/12 Q1011 NOSIG=

Extra information for HECA:More info

Metar Taf Metar & Taf Last 4 Metars F.Rules Stats Wind Profile Meteogram Temp Stats Airport Information Weather charts Add Link Nearby VenuesMetar ALERT Operation Metar Decoded Social comments